Time;durP1;ratioP1;P1;durP2;ratioP2;P2;SDS_P1;SDS_P2;PMS_P1;PMS_P2;Temp;Humidity;BMP_temperature;BMP_pressure;BME280_temperature;BME280_humidity;BME280_pressure;Samples;Min_cycle;Max_cycle;Signal;HPM_P1;HPM_P2
2022/08/23 00:01:57;;;;;;;5.50;1.80;;;24.50;99.90;;;;;;5031755;28;20031;-70
2022/08/23 00:04:30;;;;;;;7.28;1.60;;;24.50;99.90;;;;;;5031725;28;20033;-70
2022/08/23 00:06:57;;;;;;;5.55;1.50;;;24.50;99.90;;;;;;5032325;28;20035;-70
2022/08/23 00:09:25;;;;;;;7.25;1.60;;;24.60;99.90;;;;;;5032059;28;20484;-70
2022/08/23 00:11:54;;;;;;;5.45;1.75;;;24.60;99.90;;;;;;5031601;28;20422;-70
2022/08/23 00:14:28;;;;;;;8.45;1.50;;;24.60;99.90;;;;;;5031660;28;20100;-70
2022/08/23 00:16:55;;;;;;;4.97;1.25;;;24.50;99.90;;;;;;5031768;28;20057;-70
2022/08/23 00:19:22;;;;;;;4.93;1.60;;;24.50;99.90;;;;;;5031975;28;20454;-70
2022/08/23 00:21:51;;;;;;;7.55;1.50;;;24.50;99.90;;;;;;5031742;28;20140;-70
2022/08/23 00:24:17;;;;;;;5.45;1.45;;;24.50;99.90;;;;;;5032029;28;20051;-70
2022/08/23 00:27:06;;;;;;;7.68;1.50;;;24.50;99.90;;;;;;5031524;28;20076;-69
2022/08/23 00:29:48;;;;;;;7.82;1.52;;;24.50;99.90;;;;;;5031348;28;20049;-69
2022/08/23 00:32:22;;;;;;;7.60;1.55;;;24.50;99.90;;;;;;5031351;28;20191;-69
2022/08/23 00:34:48;;;;;;;6.80;1.60;;;24.40;99.90;;;;;;5031908;28;20022;-69
2022/08/23 00:37:16;;;;;;;7.28;1.88;;;24.40;99.90;;;;;;5031677;28;20137;-69
2022/08/23 00:39:43;;;;;;;5.28;1.27;;;24.50;99.90;;;;;;5031527;28;20025;-70
2022/08/23 00:47:47;;;;;;;8.73;1.60;;;24.40;99.90;;;;;;5031458;28;20033;-70
2022/08/23 00:50:36;;;;;;;4.47;1.40;;;24.40;99.90;;;;;;5031693;28;20087;-69
2022/08/23 00:53:17;;;;;;;7.47;2.08;;;24.30;99.90;;;;;;5034054;28;20493;-69
2022/08/23 00:55:47;;;;;;;6.70;1.52;;;24.30;99.90;;;;;;5035408;28;20171;-69
2022/08/23 00:58:17;;;;;;;6.68;1.45;;;24.30;99.90;;;;;;5035391;28;20552;-70
2022/08/23 01:00:44;;;;;;;7.07;1.67;;;24.30;99.90;;;;;;5035090;28;20167;-70
2022/08/23 01:03:11;;;;;;;5.43;1.30;;;24.30;99.90;;;;;;5035051;28;20104;-69
2022/08/23 01:05:43;;;;;;;7.53;1.38;;;24.20;99.90;;;;;;5035139;28;20026;-69
2022/08/23 01:08:09;;;;;;;6.63;1.58;;;24.20;99.90;;;;;;5035026;28;20018;-69
2022/08/23 01:10:43;;;;;;;7.05;1.40;;;24.10;99.90;;;;;;5035220;28;20028;-70
2022/08/23 01:13:18;;;;;;;7.38;1.50;;;24.20;99.90;;;;;;5035171;28;20021;-69
2022/08/23 01:15:55;;;;;;;8.80;1.50;;;24.20;99.90;;;;;;5034981;28;20029;-69
2022/08/23 01:18:25;;;;;;;5.15;1.60;;;24.20;99.90;;;;;;5034989;28;20037;-69
2022/08/23 01:21:24;;;;;;;6.43;1.85;;;24.20;99.90;;;;;;5034725;28;20053;-69
2022/08/23 01:23:54;;;;;;;7.60;1.45;;;24.20;99.90;;;;;;5034371;28;20040;-69
2022/08/23 01:26:23;;;;;;;5.93;1.48;;;24.20;99.90;;;;;;5034906;28;20036;-69
2022/08/23 01:28:54;;;;;;;10.90;1.60;;;24.20;99.90;;;;;;5034501;28;20041;-69
2022/08/23 01:31:22;;;;;;;6.32;1.45;;;24.20;99.90;;;;;;5034809;28;20039;-69
2022/08/23 01:33:56;;;;;;;6.40;1.55;;;24.10;99.90;;;;;;5034558;28;20331;-69
2022/08/23 01:36:23;;;;;;;5.75;1.52;;;24.10;99.90;;;;;;5034943;28;20045;-69
2022/08/23 01:38:49;;;;;;;8.35;1.50;;;24.20;99.90;;;;;;5034456;28;20037;-69
2022/08/23 01:41:15;;;;;;;7.88;1.40;;;24.20;99.90;;;;;;5034812;28;20128;-70
2022/08/23 01:43:41;;;;;;;6.75;1.70;;;24.10;99.90;;;;;;5034828;28;20030;-69
2022/08/23 01:46:18;;;;;;;5.07;1.30;;;24.10;99.90;;;;;;5034417;28;20026;-69
2022/08/23 01:48:46;;;;;;;5.47;1.38;;;24.10;99.90;;;;;;5034673;28;20071;-70
2022/08/23 01:51:15;;;;;;;5.45;1.33;;;24.10;99.90;;;;;;5034639;28;20025;-70
2022/08/23 01:53:41;;;;;;;8.52;1.20;;;24.10;99.90;;;;;;5034227;28;20516;-69
2022/08/23 01:56:08;;;;;;;7.05;1.40;;;24.20;99.90;;;;;;5034087;28;20098;-70
2022/08/23 01:58:35;;;;;;;;;;;24.20;99.90;;;;;;5034524;28;20041;-70
2022/08/23 02:01:03;;;;;;;5.32;1.40;;;24.20;99.90;;;;;;5033065;28;19905;-70
2022/08/23 02:03:30;;;;;;;9.80;1.30;;;24.20;99.90;;;;;;5034200;28;20139;-70
2022/08/23 02:05:57;;;;;;;5.45;1.40;;;24.10;99.90;;;;;;5034276;28;20462;-70
2022/08/23 02:11:17;;;;;;;6.05;1.50;;;24.00;99.90;;;;;;5034182;28;20476;-70
2022/08/23 02:13:43;;;;;;;5.80;1.83;;;24.00;99.90;;;;;;5033802;28;20113;-70
2022/08/23 02:16:10;;;;;;;;;;;24.00;99.90;;;;;;5034224;28;20535;-70
2022/08/23 02:18:37;;;;;;;7.80;1.40;;;23.90;99.90;;;;;;5033628;28;19912;-70
2022/08/23 02:21:03;;;;;;;;;;;23.90;99.90;;;;;;5032431;28;20390;-70
2022/08/23 02:23:29;;;;;;;13.30;1.77;;;23.90;99.90;;;;;;5033519;28;19909;-70
2022/08/23 02:25:56;;;;;;;6.38;1.70;;;23.80;99.90;;;;;;5033809;28;20022;-70
2022/08/23 02:28:23;;;;;;;8.63;2.03;;;23.80;99.90;;;;;;5033241;28;20042;-70
2022/08/23 02:30:50;;;;;;;4.93;1.40;;;23.90;99.90;;;;;;5033635;28;20134;-70
2022/08/23 02:33:17;;;;;;;7.90;1.58;;;23.90;99.90;;;;;;5032856;28;20367;-70
2022/08/23 02:35:43;;;;;;;7.80;1.80;;;23.90;99.90;;;;;;5033294;28;20159;-71
2022/08/23 02:38:11;;;;;;;5.53;1.65;;;23.90;99.90;;;;;;5033404;28;20458;-70
2022/08/23 02:40:39;;;;;;;6.45;1.58;;;23.90;99.90;;;;;;5032008;28;20032;-70
2022/08/23 02:43:06;;;;;;;6.55;1.48;;;23.90;99.90;;;;;;5033123;28;20394;-70
2022/08/23 02:45:32;;;;;;;7.05;1.60;;;23.90;99.90;;;;;;5032957;28;20025;-70
2022/08/23 02:47:58;;;;;;;7.93;1.45;;;23.90;99.90;;;;;;5033299;28;20437;-70
2022/08/23 02:50:26;;;;;;;5.18;1.40;;;23.90;99.90;;;;;;5031638;28;20021;-70
2022/08/23 02:52:53;;;;;;;8.25;1.67;;;23.90;99.90;;;;;;5033770;28;20378;-70
2022/08/23 02:55:20;;;;;;;6.90;1.20;;;23.90;99.90;;;;;;5033554;28;20018;-70
2022/08/23 02:57:47;;;;;;;5.95;1.45;;;23.90;99.90;;;;;;5032163;28;20107;-70
2022/08/23 03:00:14;;;;;;;4.50;1.20;;;23.90;99.90;;;;;;5033334;28;20100;-69
2022/08/23 03:02:41;;;;;;;12.45;1.80;;;23.90;99.90;;;;;;5033812;28;20057;-70
2022/08/23 03:05:09;;;;;;;8.07;1.67;;;23.90;99.90;;;;;;5033712;28;20044;-70
2022/08/23 03:07:35;;;;;;;6.32;1.50;;;23.80;99.90;;;;;;5033299;28;20057;-69
2022/08/23 03:10:03;;;;;;;8.05;1.80;;;23.80;99.90;;;;;;5033684;28;20029;-69
2022/08/23 03:12:29;;;;;;;7.60;1.67;;;23.70;99.90;;;;;;5033373;28;20026;-69
2022/08/23 03:14:56;;;;;;;7.00;1.63;;;23.70;99.90;;;;;;5033619;28;20033;-69
2022/08/23 03:17:22;;;;;;;9.05;1.80;;;23.70;99.90;;;;;;5033079;28;20041;-69
2022/08/23 03:19:48;;;;;;;9.10;1.60;;;23.70;99.90;;;;;;5033309;28;20462;-70
2022/08/23 03:22:14;;;;;;;8.73;1.80;;;23.60;99.90;;;;;;5033467;28;20029;-69
2022/08/23 03:24:40;;;;;;;6.07;1.50;;;23.70;99.90;;;;;;5033395;28;20025;-70
2022/08/23 03:27:07;;;;;;;5.85;1.55;;;23.60;99.90;;;;;;5033559;28;20025;-70
2022/08/23 03:29:34;;;;;;;5.22;2.10;;;23.60;99.90;;;;;;5033014;28;20480;-70
2022/08/23 03:32:00;;;;;;;7.95;1.77;;;23.50;99.90;;;;;;5033461;28;20034;-70
2022/08/23 03:34:26;;;;;;;9.57;1.90;;;23.50;99.90;;;;;;5032965;28;20022;-70
2022/08/23 03:36:52;;;;;;;5.55;1.60;;;23.50;99.90;;;;;;5033147;28;20032;-70
2022/08/23 03:39:18;;;;;;;10.40;2.13;;;23.40;99.90;;;;;;5033162;28;20151;-70
2022/08/23 03:41:44;;;;;;;10.45;1.70;;;23.50;99.90;;;;;;5033062;28;20025;-70
2022/08/23 03:44:10;;;;;;;5.40;1.65;;;23.40;99.90;;;;;;5033208;28;20029;-69
2022/08/23 03:46:37;;;;;;;7.95;1.60;;;23.30;99.90;;;;;;5033028;28;20021;-70
2022/08/23 03:49:04;;;;;;;9.50;1.60;;;23.30;99.90;;;;;;5032808;28;20029;-70
2022/08/23 03:51:33;;;;;;;7.57;1.80;;;23.20;99.90;;;;;;5032601;28;20095;-70
2022/08/23 03:54:00;;;;;;;5.60;1.38;;;23.20;99.90;;;;;;5032833;28;20021;-70
2022/08/23 03:56:31;;;;;;;5.28;1.50;;;23.20;99.90;;;;;;5032876;28;20049;-69
2022/08/23 03:59:00;;;;;;;6.70;1.70;;;23.30;99.90;;;;;;5032435;28;20033;-69
2022/08/23 04:01:26;;;;;;;6.93;1.75;;;23.30;99.90;;;;;;5032410;28;20419;-69
2022/08/23 04:03:53;;;;;;;6.25;1.45;;;23.30;99.90;;;;;;5032497;28;20535;-70
2022/08/23 04:06:19;;;;;;;6.00;1.40;;;23.20;99.90;;;;;;5032917;28;20029;-70
2022/08/23 04:08:45;;;;;;;7.03;1.50;;;23.10;99.90;;;;;;5032107;28;20034;-70
2022/08/23 04:11:13;;;;;;;8.35;1.58;;;23.20;99.90;;;;;;5032322;28;20033;-70
2022/08/23 04:13:39;;;;;;;7.15;1.60;;;23.10;99.90;;;;;;5032025;28;20030;-70
2022/08/23 04:16:07;;;;;;;8.13;1.80;;;23.10;99.90;;;;;;5032235;28;20053;-70
2022/08/23 04:18:35;;;;;;;12.23;1.95;;;23.20;99.90;;;;;;5032978;28;20132;-70
2022/08/23 04:21:06;;;;;;;7.20;1.85;;;23.30;99.90;;;;;;5031373;28;20124;-70
2022/08/23 04:23:32;;;;;;;6.20;1.52;;;23.30;99.90;;;;;;5032750;28;20035;-70
2022/08/23 04:25:58;;;;;;;8.32;1.98;;;23.20;99.90;;;;;;5031979;28;20037;-70
2022/08/23 04:28:24;;;;;;;7.20;2.13;;;23.20;99.90;;;;;;5032606;28;20598;-70
2022/08/23 04:30:50;;;;;;;7.00;1.85;;;23.20;99.90;;;;;;5032135;28;20075;-70
2022/08/23 04:33:17;;;;;;;5.55;1.55;;;23.20;99.90;;;;;;5032821;28;20415;-70
2022/08/23 04:35:43;;;;;;;;;;;23.10;99.90;;;;;;5032309;28;20188;-70
2022/08/23 04:38:10;;;;;;;6.38;1.80;;;23.10;99.90;;;;;;5032551;28;19913;-70
2022/08/23 04:43:21;;;;;;;6.28;1.73;;;23.20;99.90;;;;;;5033010;28;20044;-70
2022/08/23 04:45:47;;;;;;;3.33;1.10;;;23.10;99.90;;;;;;5033222;28;20026;-70
2022/08/23 04:48:13;;;;;;;5.93;1.27;;;23.20;99.90;;;;;;5033193;28;20411;-70
2022/08/23 04:50:41;;;;;;;7.28;1.60;;;23.20;99.90;;;;;;5032731;28;20080;-70
2022/08/23 04:53:07;;;;;;;8.90;1.30;;;23.20;99.90;;;;;;5032727;28;20075;-70
2022/08/23 04:55:33;;;;;;;6.55;1.77;;;23.30;99.90;;;;;;5031384;28;20053;-70
2022/08/23 04:58:00;;;;;;;5.53;1.30;;;23.30;99.90;;;;;;5032411;28;20037;-70
2022/08/23 05:00:26;;;;;;;3.10;1.30;;;23.30;99.90;;;;;;5031432;28;20356;-70
2022/08/23 05:02:52;;;;;;;5.93;1.60;;;23.30;99.90;;;;;;5032998;28;20065;-70
2022/08/23 05:05:19;;;;;;;4.25;1.20;;;23.30;99.90;;;;;;5033120;28;20053;-70
2022/08/23 05:07:45;;;;;;;9.68;2.03;;;23.30;99.90;;;;;;5032906;28;20029;-70
2022/08/23 05:10:14;;;;;;;6.78;1.55;;;23.40;99.90;;;;;;5031223;28;20033;-70
2022/08/23 05:12:40;;;;;;;5.68;1.40;;;23.40;99.90;;;;;;5032063;28;20037;-70
2022/08/23 05:15:10;;;;;;;10.45;1.80;;;23.50;99.90;;;;;;5031920;28;20160;-70
2022/08/23 05:17:37;;;;;;;8.95;1.50;;;23.50;99.90;;;;;;5032151;28;20030;-70
2022/08/23 05:20:05;;;;;;;;;;;24.10;99.90;;;;;;5030908;28;20021;-70
2022/08/23 05:22:36;;;;;;;8.38;1.60;;;25.40;99.90;;;;;;5032013;28;20325;-70
2022/08/23 05:25:02;;;;;;;10.00;1.92;;;27.30;99.90;;;;;;5032363;28;20029;-71
2022/08/23 05:27:28;;;;;;;5.55;1.25;;;29.50;99.90;;;;;;5032015;28;20029;-70
2022/08/23 05:29:54;;;;;;;6.32;1.30;;;31.30;99.90;;;;;;5031646;28;20033;-71
2022/08/23 05:32:21;;;;;;;5.60;1.27;;;32.70;99.90;;;;;;5032022;28;20446;-71
2022/08/23 05:34:47;;;;;;;7.72;1.38;;;33.40;99.90;;;;;;5032140;28;20526;-71
2022/08/23 05:37:14;;;;;;;;;;;33.90;99.90;;;;;;5035647;28;20029;-71
2022/08/23 05:39:40;;;;;;;5.43;1.17;;;34.40;99.90;;;;;;5033965;28;20295;-71
2022/08/23 05:42:08;;;;;;;9.77;1.52;;;35.10;99.90;;;;;;5033868;28;20497;-71
2022/08/23 05:44:35;;;;;;;4.18;1.05;;;36.10;99.90;;;;;;5035294;28;20068;-71
2022/08/23 05:47:01;;;;;;;4.85;1.20;;;37.00;98.10;;;;;;5035248;28;20030;-71
2022/08/23 05:49:28;;;;;;;4.82;0.95;;;38.10;96.70;;;;;;5034844;28;20026;-71
2022/08/23 05:51:54;;;;;;;5.25;1.10;;;38.50;96.00;;;;;;5035058;28;20517;-71
2022/08/23 05:54:20;;;;;;;8.20;1.45;;;39.50;94.60;;;;;;5035078;28;20038;-71
2022/08/23 05:56:46;;;;;;;4.18;1.20;;;40.20;93.30;;;;;;5034491;28;20044;-71
2022/08/23 05:59:15;;;;;;;3.67;0.90;;;40.70;92.60;;;;;;5034824;28;20040;-71
2022/08/23 06:01:42;;;;;;;4.18;1.20;;;40.70;91.80;;;;;;5035239;28;20443;-71
2022/08/23 06:04:11;;;;;;;7.00;1.20;;;41.10;91.40;;;;;;5034811;28;20162;-71
2022/08/23 06:06:38;;;;;;;5.93;1.10;;;41.50;90.80;;;;;;5034360;28;20054;-70
2022/08/23 06:09:07;;;;;;;6.47;1.30;;;41.20;90.50;;;;;;5034547;28;20029;-70
2022/08/23 06:11:33;;;;;;;4.75;1.17;;;41.20;90.10;;;;;;5034387;28;20105;-70
2022/08/23 06:14:02;;;;;;;6.25;1.25;;;40.70;90.70;;;;;;5034487;28;20024;-70
2022/08/23 06:16:31;;;;;;;5.97;1.10;;;40.20;91.00;;;;;;5034250;28;20101;-70
2022/08/23 06:18:58;;;;;;;5.00;1.30;;;40.90;90.40;;;;;;5035049;28;20025;-70
2022/08/23 06:21:27;;;;;;;4.70;1.10;;;41.50;90.00;;;;;;5035490;28;20017;-70
2022/08/23 06:23:53;;;;;;;6.15;1.30;;;42.40;88.50;;;;;;5035303;28;20466;-70
2022/08/23 06:26:22;;;;;;;5.63;1.25;;;42.20;87.30;;;;;;5035226;28;20148;-70
2022/08/23 06:28:50;;;;;;;6.22;1.30;;;42.90;86.60;;;;;;5034670;28;20402;-70
2022/08/23 06:32:03;;;;;;;6.75;1.50;;;43.20;85.00;;;;;;5034731;28;20025;-70
2022/08/23 06:34:04;;;;;;;4.53;1.00;;;43.60;84.50;;;;;;5030859;28;20505;-70
2022/08/23 06:36:30;;;;;;;8.40;1.30;;;43.60;84.10;;;;;;5034409;28;20466;-71
2022/08/23 06:38:56;;;;;;;5.22;1.35;;;44.10;82.80;;;;;;5034562;28;20140;-70
2022/08/23 06:41:22;;;;;;;5.07;1.10;;;44.20;81.90;;;;;;5034514;28;20026;-70
2022/08/23 06:43:49;;;;;;;4.60;1.23;;;43.50;81.80;;;;;;5034372;28;20030;-70
2022/08/23 06:46:18;;;;;;;6.00;1.10;;;42.40;83.80;;;;;;5035001;28;20057;-70
2022/08/23 06:48:46;;;;;;;5.43;1.00;;;42.80;84.00;;;;;;5034148;28;20025;-70
2022/08/23 06:51:24;;;;;;;4.43;1.20;;;43.00;83.30;;;;;;5033030;28;20091;-70
2022/08/23 06:53:55;;;;;;;6.65;1.30;;;43.70;82.60;;;;;;5034821;28;20097;-70
2022/08/23 06:56:23;;;;;;;3.97;1.10;;;43.50;81.50;;;;;;5034202;28;20100;-70
2022/08/23 06:58:50;;;;;;;6.30;1.15;;;43.30;81.40;;;;;;5034658;28;20044;-70
2022/08/23 07:01:27;;;;;;;4.95;1.10;;;43.30;81.10;;;;;;5034091;28;20026;-70
2022/08/23 07:03:54;;;;;;;5.15;1.08;;;42.60;81.00;;;;;;5034617;28;20048;-70
2022/08/23 07:06:22;;;;;;;4.95;0.95;;;42.50;82.10;;;;;;5034139;28;20032;-70
2022/08/23 07:08:48;;;;;;;4.68;1.10;;;42.70;81.50;;;;;;5034350;28;20116;-70
2022/08/23 07:11:15;;;;;;;6.13;1.30;;;43.30;81.20;;;;;;5033955;28;20228;-70
2022/08/23 07:13:41;;;;;;;5.28;0.98;;;43.40;80.40;;;;;;5034041;28;20032;-70
2022/08/23 07:16:07;;;;;;;7.20;1.10;;;43.00;80.40;;;;;;5034162;28;20025;-70
2022/08/23 07:18:33;;;;;;;4.00;1.00;;;43.20;81.00;;;;;;5033537;28;20386;-70
2022/08/23 07:21:01;;;;;;;5.07;1.05;;;43.30;79.90;;;;;;5033773;28;20063;-70
2022/08/23 07:23:31;;;;;;;4.25;0.95;;;43.30;79.30;;;;;;5033587;28;20021;-70
2022/08/23 07:26:05;;;;;;;6.57;1.25;;;41.90;80.50;;;;;;5033694;28;20033;-71
2022/08/23 07:28:31;;;;;;;6.05;1.02;;;40.90;82.90;;;;;;5033639;28;20045;-70
2022/08/23 07:31:15;;;;;;;5.35;1.20;;;40.70;83.60;;;;;;5033493;28;20083;-70
2022/08/23 07:33:43;;;;;;;5.50;0.95;;;38.70;85.50;;;;;;5033999;28;20466;-70
2022/08/23 07:36:13;;;;;;;4.97;1.20;;;37.10;87.10;;;;;;5033978;28;20331;-70
2022/08/23 07:38:39;;;;;;;5.43;1.20;;;36.30;89.50;;;;;;5033507;28;20037;-71
2022/08/23 07:41:05;;;;;;;7.72;1.25;;;36.00;90.20;;;;;;5034083;28;20459;-70
2022/08/23 07:43:33;;;;;;;6.45;1.20;;;36.20;90.40;;;;;;5033813;28;20029;-70
2022/08/23 07:45:59;;;;;;;7.75;1.50;;;36.50;90.50;;;;;;5033796;28;20022;-70
2022/08/23 07:48:26;;;;;;;4.30;1.00;;;35.70;90.30;;;;;;5032810;28;20056;-70
2022/08/23 07:50:58;;;;;;;4.05;1.17;;;35.30;90.60;;;;;;5032527;28;20041;-70
2022/08/23 07:53:24;;;;;;;4.38;1.10;;;35.40;90.50;;;;;;5032376;28;20022;-70
2022/08/23 07:55:51;;;;;;;4.20;0.95;;;35.10;90.40;;;;;;5032393;28;20450;-70
2022/08/23 07:58:18;;;;;;;4.20;0.82;;;34.90;90.30;;;;;;5032065;28;20037;-70
2022/08/23 08:00:44;;;;;;;3.60;0.95;;;34.90;90.50;;;;;;5031595;28;20535;-70
2022/08/23 08:03:12;;;;;;;4.63;1.17;;;34.70;90.70;;;;;;5032290;28;20079;-70
2022/08/23 08:05:38;;;;;;;4.22;1.05;;;34.20;91.30;;;;;;5032465;28;20029;-70
2022/08/23 08:08:06;;;;;;;3.80;1.08;;;33.80;90.90;;;;;;5032311;28;20043;-70
2022/08/23 08:10:34;;;;;;;3.63;1.00;;;33.00;91.50;;;;;;5032503;28;20028;-70
2022/08/23 08:13:00;;;;;;;2.75;0.63;;;33.00;91.60;;;;;;5030500;28;20128;-70
2022/08/23 08:15:26;;;;;;;;;;;33.20;91.30;;;;;;5032477;28;20026;-70
2022/08/23 08:17:52;;;;;;;6.28;1.10;;;33.50;91.30;;;;;;5032385;28;20321;-70
2022/08/23 08:20:20;;;;;;;7.57;1.00;;;34.00;90.70;;;;;;5033385;28;20017;-70
2022/08/23 08:22:47;;;;;;;6.03;1.00;;;34.40;90.60;;;;;;5033384;28;20441;-70
2022/08/23 08:25:14;;;;;;;4.63;1.20;;;34.80;90.40;;;;;;5032233;28;20025;-70
2022/08/23 08:27:41;;;;;;;3.08;1.10;;;34.80;90.50;;;;;;5032817;28;20103;-70
2022/08/23 08:30:09;;;;;;;5.13;1.10;;;34.70;90.60;;;;;;5033033;28;20075;-70
2022/08/23 08:32:35;;;;;;;4.80;1.50;;;34.60;90.60;;;;;;5032859;28;20079;-70
2022/08/23 08:35:02;;;;;;;7.38;1.50;;;34.70;90.80;;;;;;5033279;28;20048;-70
2022/08/23 08:37:29;;;;;;;7.38;1.63;;;34.50;90.80;;;;;;5033057;28;20116;-69
2022/08/23 08:39:55;;;;;;;6.25;1.60;;;34.30;91.00;;;;;;5032662;28;20100;-70
2022/08/23 08:42:27;;;;;;;;;;;34.10;91.10;;;;;;5033434;28;20435;-70
2022/08/23 08:45:26;;;;;;;5.40;1.65;;;33.80;91.60;;;;;;5032876;28;20004;-70
2022/08/23 08:47:57;;;;;;;5.25;1.35;;;34.00;91.80;;;;;;5032524;28;20037;-70
2022/08/23 08:50:38;;;;;;;8.98;1.33;;;34.20;91.50;;;;;;5033065;28;20129;-70
2022/08/23 08:53:15;;;;;;;5.88;1.10;;;34.40;91.00;;;;;;5032897;28;20033;-71
2022/08/23 08:55:50;;;;;;;5.65;1.45;;;34.30;91.20;;;;;;5032995;28;20403;-71
2022/08/23 08:58:27;;;;;;;27.00;2.60;;;34.40;91.30;;;;;;5032517;28;20065;-71
2022/08/23 09:00:54;;;;;;;7.82;1.77;;;34.40;91.40;;;;;;5032496;28;20021;-70
2022/08/23 09:03:21;;;;;;;10.30;1.55;;;34.20;91.30;;;;;;5030718;28;20030;-70
2022/08/23 09:06:33;;;;;;;4.35;1.27;;;34.10;91.60;;;;;;5031970;28;20038;-71
2022/08/23 09:09:21;;;;;;;9.65;1.88;;;34.30;91.40;;;;;;5032084;28;20048;-70
2022/08/23 09:12:02;;;;;;;5.40;1.35;;;34.20;91.20;;;;;;5034226;28;20036;-71
2022/08/23 09:15:04;;;;;;;8.32;1.48;;;33.90;91.80;;;;;;5035697;28;20183;-70
2022/08/23 09:17:51;;;;;;;10.50;2.17;;;34.00;91.90;;;;;;5036129;28;20041;-70
2022/08/23 09:20:19;;;;;;;6.13;1.33;;;33.60;92.10;;;;;;5035768;28;20038;-70
2022/08/23 09:22:50;;;;;;;5.10;1.45;;;33.30;92.50;;;;;;5035705;28;20022;-69
2022/08/23 09:25:17;;;;;;;7.40;1.40;;;33.00;92.50;;;;;;5035692;28;20036;-70
2022/08/23 09:27:44;;;;;;;5.32;1.10;;;33.00;92.50;;;;;;5035553;28;20037;-70
2022/08/23 09:30:14;;;;;;;5.05;1.20;;;32.80;92.80;;;;;;5035983;28;20026;-70
2022/08/23 09:32:43;;;;;;;13.13;1.67;;;32.50;93.20;;;;;;5035741;28;20026;-70
2022/08/23 09:35:19;;;;;;;6.03;1.50;;;32.70;93.40;;;;;;5035421;28;20025;-70
2022/08/23 09:37:51;;;;;;;9.10;1.65;;;32.80;93.00;;;;;;5035364;28;20064;-71
2022/08/23 09:40:19;;;;;;;5.65;1.48;;;32.80;93.10;;;;;;5035908;28;20486;-71
2022/08/23 09:43:02;;;;;;;5.13;1.50;;;32.80;93.10;;;;;;5035244;28;20101;-70
2022/08/23 09:45:35;;;;;;;5.07;1.27;;;32.80;93.10;;;;;;5035953;28;20484;-70
2022/08/23 09:48:02;;;;;;;6.15;1.45;;;32.70;92.90;;;;;;5036088;28;20021;-71
2022/08/23 09:50:33;;;;;;;9.27;1.45;;;32.60;93.00;;;;;;5035859;28;20112;-72
2022/08/23 09:53:08;;;;;;;6.80;1.27;;;32.60;93.60;;;;;;5034245;28;20029;-70
2022/08/23 09:55:38;;;;;;;6.53;1.35;;;32.70;93.10;;;;;;5035879;28;20029;-71
2022/08/23 09:58:25;;;;;;;12.10;1.65;;;32.60;93.10;;;;;;5035065;28;20328;-70
2022/08/23 10:01:06;;;;;;;10.48;1.90;;;32.40;93.30;;;;;;5035542;28;20032;-70
2022/08/23 10:03:32;;;;;;;6.60;1.80;;;32.50;93.30;;;;;;5035707;28;20033;-71
2022/08/23 10:05:59;;;;;;;4.85;1.52;;;32.40;93.70;;;;;;5035357;28;20032;-71
2022/08/23 10:08:32;;;;;;;8.98;1.63;;;32.50;93.60;;;;;;5035052;28;20407;-70
2022/08/23 10:11:19;;;;;;;4.20;1.20;;;32.40;93.30;;;;;;5035060;28;20030;-71
2022/08/23 10:13:46;;;;;;;5.03;1.27;;;32.30;93.30;;;;;;5033997;28;20053;-70
2022/08/23 10:16:50;;;;;;;5.95;1.65;;;32.20;93.60;;;;;;5035249;28;20458;-71
2022/08/23 10:19:37;;;;;;;6.32;1.60;;;32.20;93.70;;;;;;5033055;28;20078;-70
2022/08/23 10:22:20;;;;;;;7.75;1.30;;;32.00;93.50;;;;;;5015080;28;20079;-70
2022/08/23 10:24:47;;;;;;;5.55;1.33;;;31.90;93.70;;;;;;5033056;28;20037;-70
2022/08/23 10:31:02;;;;;;;3.95;1.30;;;31.70;94.40;;;;;;5032494;28;20056;-69
2022/08/23 10:34:13;;;;;;;3.25;1.02;;;32.00;94.10;;;;;;5015445;28;20034;-70
2022/08/23 10:37:09;;;;;;;4.38;1.20;;;32.00;94.00;;;;;;4953809;29;20039;-70
2022/08/23 10:39:44;;;;;;;6.90;1.35;;;31.70;94.00;;;;;;4953996;29;20042;-69
2022/08/23 10:42:36;;;;;;;4.40;1.10;;;31.80;94.00;;;;;;4954575;29;20118;-70
2022/08/23 10:45:14;;;;;;;8.48;1.17;;;31.90;93.90;;;;;;4953646;29;20118;-70
2022/08/23 10:48:12;;;;;;;4.00;1.25;;;31.90;94.00;;;;;;4954431;29;20047;-69
2022/08/23 10:50:47;;;;;;;5.45;1.27;;;32.00;93.70;;;;;;4948970;29;20049;-70
2022/08/23 10:53:17;;;;;;;4.18;0.98;;;32.00;93.90;;;;;;4969544;28;20508;-69
2022/08/23 10:56:01;;;;;;;6.82;1.40;;;32.00;93.80;;;;;;4953690;29;20055;-69
2022/08/23 10:58:35;;;;;;;3.80;1.02;;;32.00;93.90;;;;;;4953158;29;20532;-70
2022/08/23 11:01:02;;;;;;;4.55;1.23;;;32.00;93.60;;;;;;4953539;29;20051;-69
2022/08/23 11:03:32;;;;;;;6.93;1.88;;;32.00;93.70;;;;;;4937595;29;20039;-70
2022/08/23 11:06:23;;;;;;;5.03;1.13;;;32.00;93.30;;;;;;4953477;29;20046;-70
2022/08/23 11:08:58;;;;;;;7.00;1.20;;;31.90;93.60;;;;;;4953019;29;20551;-70
2022/08/23 11:11:45;;;;;;;5.95;1.13;;;32.20;92.90;;;;;;4965573;28;20038;-69
2022/08/23 11:14:31;;;;;;;5.38;1.08;;;32.20;92.90;;;;;;5033500;28;20036;-70
2022/08/23 11:17:01;;;;;;;4.20;1.02;;;32.40;93.00;;;;;;5033718;28;20029;-70
2022/08/23 11:20:08;;;;;;;6.13;0.98;;;32.20;93.10;;;;;;5033718;28;20029;-69
2022/08/23 11:22:57;;;;;;;7.55;4.10;;;32.30;92.80;;;;;;5031843;28;20053;-70
2022/08/23 11:25:23;;;;;;;3.05;1.00;;;32.40;92.40;;;;;;4994030;28;20044;-70
2022/08/23 11:27:49;;;;;;;4.03;1.00;;;32.40;92.30;;;;;;5014977;28;20037;-70
2022/08/23 11:30:33;;;;;;;;;;;32.40;92.50;;;;;;5032353;28;20041;-69
2022/08/23 11:33:20;;;;;;;4.45;1.17;;;32.50;92.20;;;;;;5031532;28;19988;-70
2022/08/23 11:35:51;;;;;;;3.63;1.00;;;32.50;92.10;;;;;;5032169;28;20033;-69
2022/08/23 11:38:42;;;;;;;6.10;0.90;;;32.40;92.00;;;;;;5032289;28;20128;-70
2022/08/23 11:41:25;;;;;;;4.70;1.17;;;32.70;91.70;;;;;;5031328;28;20025;-69
2022/08/23 11:43:54;;;;;;;6.38;1.17;;;32.60;92.20;;;;;;5031782;28;20041;-70
2022/08/23 11:46:24;;;;;;;2.95;0.90;;;32.80;91.80;;;;;;5031311;28;20032;-70
2022/08/23 11:49:27;;;;;;;4.75;1.15;;;32.90;91.50;;;;;;5031389;28;20021;-69
2022/08/23 11:51:58;;;;;;;6.75;1.20;;;32.70;91.60;;;;;;5031409;28;20106;-69
2022/08/23 11:54:45;;;;;;;4.40;1.30;;;32.80;91.60;;;;;;5014083;28;20524;-69
2022/08/23 11:57:30;;;;;;;4.85;1.00;;;33.00;91.70;;;;;;5032426;28;20129;-71
2022/08/23 12:00:12;;;;;;;3.78;0.90;;;33.20;91.60;;;;;;5033231;28;20021;-70
2022/08/23 12:02:38;;;;;;;6.88;1.90;;;33.10;91.80;;;;;;5033163;28;20021;-69
2022/08/23 12:05:19;;;;;;;5.15;1.10;;;33.20;91.90;;;;;;5031399;28;20056;-70
2022/08/23 12:08:16;;;;;;;4.90;1.00;;;33.00;92.00;;;;;;5033308;28;20079;-69
2022/08/23 12:10:42;;;;;;;15.68;1.63;;;33.00;92.10;;;;;;5032811;28;20032;-70
2022/08/23 12:13:21;;;;;;;6.70;1.20;;;33.00;92.10;;;;;;5033001;28;20039;-70
2022/08/23 12:16:08;;;;;;;9.95;1.58;;;32.90;92.00;;;;;;5033382;28;20116;-70
2022/08/23 12:18:43;;;;;;;6.00;1.15;;;32.80;92.70;;;;;;5032928;28;20091;-70
2022/08/23 12:21:19;;;;;;;11.15;1.50;;;32.90;93.00;;;;;;5033349;28;20131;-70
2022/08/23 12:23:49;;;;;;;4.90;1.30;;;32.90;92.70;;;;;;5033534;28;20026;-70
2022/08/23 12:26:41;;;;;;;4.03;0.93;;;32.80;92.80;;;;;;5032776;28;20032;-70
2022/08/23 12:29:21;;;;;;;7.10;0.88;;;32.50;92.70;;;;;;5032888;28;20082;-70
2022/08/23 12:32:06;;;;;;;8.30;1.30;;;32.60;92.70;;;;;;5032851;28;20032;-70
2022/08/23 12:34:36;;;;;;;5.68;1.00;;;32.50;92.30;;;;;;5031664;28;20518;-70
2022/08/23 12:37:15;;;;;;;5.03;1.10;;;32.70;92.60;;;;;;5032824;28;20028;-70
2022/08/23 12:39:56;;;;;;;7.03;1.10;;;32.80;92.40;;;;;;5032743;28;20030;-70
2022/08/23 12:42:32;;;;;;;31.20;2.22;;;32.70;92.80;;;;;;5033243;28;20052;-70
2022/08/23 12:45:11;;;;;;;14.85;1.90;;;33.00;92.50;;;;;;5033871;28;20021;-70
2022/08/23 12:47:42;;;;;;;4.55;1.27;;;33.20;91.80;;;;;;5039959;28;20029;-70
2022/08/23 12:50:13;;;;;;;5.60;1.17;;;33.00;91.90;;;;;;5039064;28;20040;-70
2022/08/23 12:52:40;;;;;;;4.07;0.88;;;32.90;92.10;;;;;;5039118;28;20079;-70
2022/08/23 12:55:15;;;;;;;6.82;1.10;;;32.70;92.10;;;;;;5038918;28;20022;-70
2022/08/23 12:57:49;;;;;;;5.95;1.20;;;32.60;92.40;;;;;;5037453;28;20040;-70
2022/08/23 13:00:30;;;;;;;6.22;1.27;;;32.40;93.00;;;;;;5039007;28;20026;-70
2022/08/23 13:03:18;;;;;;;6.40;1.20;;;32.30;93.60;;;;;;5037525;28;20030;-70
2022/08/23 13:05:57;;;;;;;8.07;1.50;;;32.20;93.70;;;;;;5038840;28;20022;-70
2022/08/23 13:08:28;;;;;;;4.97;1.35;;;32.30;94.10;;;;;;5038898;28;20039;-69
2022/08/23 13:10:55;;;;;;;5.55;1.20;;;32.30;94.70;;;;;;5038960;28;20111;-70
2022/08/23 13:13:25;;;;;;;8.02;1.50;;;32.20;95.10;;;;;;5038734;28;20026;-70
2022/08/23 13:15:58;;;;;;;8.60;1.33;;;32.20;95.70;;;;;;5039315;28;20025;-71
2022/08/23 13:18:37;;;;;;;11.43;1.67;;;32.10;96.30;;;;;;5039099;28;20087;-70
2022/08/23 13:21:21;;;;;;;5.20;1.20;;;32.30;96.60;;;;;;5037710;28;20033;-70
2022/08/23 13:23:49;;;;;;;4.15;0.90;;;32.50;96.20;;;;;;5039302;28;20462;-71
2022/08/23 13:26:26;;;;;;;6.03;1.20;;;32.50;93.70;;;;;;5039456;28;20427;-70